createdAt,value
2024-01-15T00:00:36.608Z,16.83
2024-01-15T00:03:03.941Z,16.60
2024-01-15T00:05:30.959Z,18.58
2024-01-15T00:07:58.005Z,20.42
2024-01-15T00:10:25.081Z,19.48
2024-01-15T00:12:52.043Z,29.58
2024-01-15T00:15:19.004Z,18.40
2024-01-15T00:17:45.997Z,17.48
2024-01-15T00:20:13.164Z,16.65
2024-01-15T00:22:40.537Z,19.45
2024-01-15T00:25:07.859Z,17.98
2024-01-15T00:27:34.824Z,18.35
2024-01-15T00:30:01.857Z,17.77
2024-01-15T00:32:29.425Z,18.02
2024-01-15T00:34:56.792Z,20.27
2024-01-15T00:37:23.782Z,19.08
2024-01-15T00:39:50.861Z,16.02
2024-01-15T00:42:18.040Z,19.65
2024-01-15T00:44:45.101Z,21.40
2024-01-15T00:47:12.035Z,22.08
2024-01-15T00:49:39.325Z,20.05
2024-01-15T00:52:06.564Z,17.10
2024-01-15T00:54:33.582Z,16.27
2024-01-15T00:57:00.618Z,17.73
2024-01-15T00:59:27.579Z,16.48
2024-01-15T01:01:54.544Z,16.13
2024-01-15T01:04:21.596Z,17.02
2024-01-15T01:06:48.697Z,14.98
2024-01-15T01:09:15.750Z,17.90
2024-01-15T01:11:42.699Z,18.83
2024-01-15T01:14:09.682Z,16.52
2024-01-15T01:16:40.378Z,16.30
2024-01-15T01:19:08.748Z,16.55
2024-01-15T01:21:36.190Z,16.25
2024-01-15T01:24:03.251Z,17.55
2024-01-15T01:26:30.230Z,16.23
2024-01-15T01:28:57.357Z,15.82
2024-01-15T01:31:25.181Z,16.08
2024-01-15T01:33:52.599Z,16.33
2024-01-15T01:36:20.154Z,16.08
2024-01-15T01:38:47.210Z,15.00
2024-01-15T01:41:14.164Z,16.38
2024-01-15T01:43:41.190Z,15.45
2024-01-15T01:46:08.630Z,15.82
2024-01-15T01:48:36.904Z,16.45
2024-01-15T01:51:05.477Z,17.80
2024-01-15T01:53:34.499Z,18.00
2024-01-15T01:56:02.481Z,19.92
2024-01-15T01:58:30.296Z,18.02
2024-01-15T02:00:58.189Z,19.25
2024-01-15T02:03:26.056Z,20.08
2024-01-15T02:05:55.289Z,19.08
2024-01-15T02:08:23.318Z,18.67
2024-01-15T02:10:50.257Z,19.42
2024-01-15T02:13:18.282Z,18.30
2024-01-15T02:15:45.383Z,21.85
2024-01-15T02:18:12.524Z,19.55
2024-01-15T02:20:39.768Z,19.95
2024-01-15T02:23:11.732Z,21.00
2024-01-15T02:25:43.487Z,19.80
2024-01-15T02:28:12.402Z,20.15
2024-01-15T02:30:40.940Z,19.38
2024-01-15T02:33:12.814Z,20.30
2024-01-15T02:35:40.191Z,20.52
2024-01-15T02:38:07.556Z,22.27
2024-01-15T02:40:35.466Z,21.58
2024-01-15T02:43:02.519Z,22.60
2024-01-15T02:45:29.559Z,22.90
2024-01-15T02:47:56.876Z,20.38
2024-01-15T02:50:23.924Z,20.98
2024-01-15T02:52:51.213Z,21.33
2024-01-15T02:55:18.108Z,21.85
2024-01-15T02:57:45.301Z,23.67
2024-01-15T03:00:15.654Z,21.58
2024-01-15T03:02:47.227Z,21.45
2024-01-15T03:05:15.670Z,22.77
2024-01-15T03:07:43.038Z,22.20
2024-01-15T03:10:10.564Z,23.70
2024-01-15T03:12:37.505Z,25.17
2024-01-15T03:15:05.005Z,24.00
2024-01-15T03:17:32.095Z,22.90
2024-01-15T03:19:59.140Z,24.00
2024-01-15T03:22:26.107Z,22.27
2024-01-15T03:24:54.581Z,22.48
2024-01-15T03:27:21.642Z,22.00
2024-01-15T03:29:48.735Z,23.30
2024-01-15T03:32:17.301Z,22.55
2024-01-15T03:34:44.479Z,22.90
2024-01-15T03:37:11.476Z,21.48
2024-01-15T03:39:38.522Z,22.30
2024-01-15T03:42:05.845Z,23.23
2024-01-15T03:44:32.978Z,23.65
2024-01-15T03:47:00.004Z,23.92
2024-01-15T03:49:27.158Z,25.60
2024-01-15T03:51:54.263Z,25.63
2024-01-15T03:54:21.439Z,22.48
2024-01-15T03:56:48.655Z,21.98
2024-01-15T03:59:15.671Z,23.17
2024-01-15T04:01:48.906Z,23.75
2024-01-15T04:04:17.718Z,25.23
2024-01-15T04:06:45.063Z,24.83
2024-01-15T04:09:14.717Z,23.42
2024-01-15T04:11:41.883Z,23.92
2024-01-15T04:14:08.883Z,22.77
2024-01-15T04:16:35.935Z,22.67
2024-01-15T04:19:02.988Z,25.08
2024-01-15T04:21:30.135Z,21.90
2024-01-15T04:23:57.126Z,26.40
2024-01-15T04:26:24.096Z,23.65
2024-01-15T04:28:51.079Z,24.52
2024-01-15T04:31:26.231Z,24.83
2024-01-15T04:33:53.809Z,25.17
2024-01-15T04:36:20.954Z,24.30
2024-01-15T04:38:47.893Z,22.60
2024-01-15T04:41:15.469Z,21.38
2024-01-15T04:43:42.597Z,23.83
2024-01-15T04:46:15.833Z,24.52
2024-01-15T04:48:45.559Z,25.13
2024-01-15T04:51:13.591Z,24.08
2024-01-15T04:53:40.973Z,24.52
2024-01-15T04:56:08.202Z,23.10
2024-01-15T04:58:35.454Z,23.00
2024-01-15T05:01:05.071Z,22.50
2024-01-15T05:03:32.566Z,24.92
2024-01-15T05:06:00.500Z,25.20
2024-01-15T05:08:27.910Z,22.85
2024-01-15T05:10:55.073Z,23.70
2024-01-15T05:13:22.217Z,24.77
2024-01-15T05:15:49.285Z,23.27
2024-01-15T05:18:16.775Z,23.23
2024-01-15T05:20:43.850Z,23.55
2024-01-15T05:23:10.826Z,23.08
2024-01-15T05:25:38.123Z,24.98
2024-01-15T05:28:06.879Z,23.15
2024-01-15T05:30:34.107Z,24.95
2024-01-15T05:33:02.439Z,22.80
2024-01-15T05:35:29.596Z,23.63
2024-01-15T05:37:56.696Z,23.00
2024-01-15T05:40:23.908Z,24.23
2024-01-15T05:42:51.147Z,24.58
2024-01-15T05:45:19.008Z,22.02
2024-01-15T05:47:46.319Z,21.98
2024-01-15T05:50:13.672Z,23.20
2024-01-15T05:52:40.754Z,22.13
2024-01-15T05:55:08.216Z,23.63
2024-01-15T05:57:35.366Z,24.05
2024-01-15T06:00:02.680Z,21.02
2024-01-15T06:02:33.269Z,22.00
2024-01-15T06:05:00.458Z,22.63
2024-01-15T06:07:28.370Z,22.23
2024-01-15T06:09:55.387Z,23.65
2024-01-15T06:12:22.696Z,22.88
2024-01-15T06:14:50.027Z,22.50
2024-01-15T06:17:17.114Z,24.08
2024-01-15T06:19:44.320Z,20.40
2024-01-15T06:22:11.522Z,23.23
2024-01-15T06:24:38.633Z,21.10
2024-01-15T06:27:05.883Z,22.25
2024-01-15T06:29:34.046Z,20.65
2024-01-15T06:32:01.153Z,22.27
2024-01-15T06:34:28.131Z,21.83
2024-01-15T06:36:55.521Z,22.60
2024-01-15T06:39:22.554Z,21.27
2024-01-15T06:41:49.639Z,21.10
2024-01-15T06:44:16.965Z,22.58
2024-01-15T06:46:44.580Z,20.90
2024-01-15T06:49:12.538Z,23.00
2024-01-15T06:51:40.861Z,21.73
2024-01-15T06:54:07.972Z,21.77
2024-01-15T06:56:35.021Z,22.27
2024-01-15T06:59:02.043Z,23.90
2024-01-15T07:01:29.065Z,24.67
2024-01-15T07:03:56.357Z,22.90
2024-01-15T07:06:23.312Z,22.70
2024-01-15T07:08:51.074Z,23.95
2024-01-15T07:11:17.991Z,23.35
2024-01-15T07:13:45.283Z,22.80
2024-01-15T07:16:12.210Z,22.65
2024-01-15T07:18:39.215Z,21.33
2024-01-15T07:21:06.150Z,22.23
2024-01-15T07:23:33.398Z,21.92
2024-01-15T07:26:00.306Z,21.33
2024-01-15T07:28:30.058Z,21.83
2024-01-15T07:30:57.144Z,20.10
2024-01-15T07:33:24.234Z,20.13
2024-01-15T07:35:51.277Z,21.38
2024-01-15T07:38:18.278Z,33.28
2024-01-15T07:40:45.583Z,37.72
2024-01-15T07:43:12.529Z,25.50
2024-01-15T07:45:40.239Z,29.10
2024-01-15T07:48:08.739Z,26.20
2024-01-15T07:50:35.732Z,28.33
2024-01-15T07:53:02.782Z,26.58
2024-01-15T07:55:29.722Z,25.15
2024-01-15T08:00:29.738Z,22.75
2024-01-15T08:02:56.769Z,20.73
2024-01-15T08:05:23.689Z,21.50
2024-01-15T08:07:50.692Z,20.05
2024-01-15T08:10:17.709Z,20.67
2024-01-15T08:12:44.976Z,21.83
2024-01-15T08:15:11.966Z,20.50
2024-01-15T08:17:39.099Z,21.33
2024-01-15T08:20:06.860Z,20.25
2024-01-15T08:22:34.031Z,19.50
2024-01-15T08:25:01.068Z,21.17
2024-01-15T08:27:29.123Z,20.65
2024-01-15T08:29:56.187Z,19.95
2024-01-15T08:32:23.263Z,18.70
2024-01-15T08:34:53.433Z,19.45
2024-01-15T08:37:20.749Z,19.85
2024-01-15T08:39:50.234Z,20.25
2024-01-15T08:42:18.326Z,18.55
2024-01-15T08:44:45.302Z,19.45
2024-01-15T08:47:12.248Z,19.75
2024-01-15T08:49:40.927Z,18.90
2024-01-15T08:52:08.600Z,16.35
2024-01-15T08:54:35.630Z,16.63
2024-01-15T08:57:02.749Z,12.75
2024-01-15T08:59:29.743Z,12.68
2024-01-15T09:01:59.455Z,12.40
2024-01-15T09:04:26.679Z,13.52
2024-01-15T09:06:53.718Z,12.57
2024-01-15T09:09:20.893Z,11.40
2024-01-15T09:11:47.956Z,11.00
2024-01-15T09:14:17.142Z,9.98
2024-01-15T09:16:46.715Z,8.02
2024-01-15T09:19:13.858Z,8.13
2024-01-15T09:21:41.705Z,8.27
2024-01-15T09:24:08.662Z,7.65
2024-01-15T09:26:35.657Z,8.85
2024-01-15T09:29:03.941Z,9.10
2024-01-15T09:31:31.021Z,7.68
2024-01-15T09:33:59.601Z,9.05
2024-01-15T09:36:26.883Z,16.55
2024-01-15T09:38:53.922Z,17.25
2024-01-15T09:41:21.086Z,12.68
2024-01-15T09:43:48.665Z,12.82
2024-01-15T09:46:16.267Z,14.63
2024-01-15T09:48:43.410Z,12.93
2024-01-15T09:51:11.413Z,12.40
2024-01-15T09:53:40.132Z,16.25
2024-01-15T09:56:07.342Z,14.93
2024-01-15T09:58:35.662Z,14.95
2024-01-15T10:01:08.381Z,14.40
2024-01-15T10:03:36.102Z,11.65
2024-01-15T10:06:03.486Z,12.57
2024-01-15T10:08:30.579Z,13.43
2024-01-15T10:10:57.522Z,14.45
2024-01-15T10:13:24.717Z,13.20
2024-01-15T10:15:51.718Z,12.52
2024-01-15T10:18:19.105Z,13.25
2024-01-15T10:20:46.390Z,12.93
2024-01-15T10:23:13.401Z,15.05
2024-01-15T10:25:43.326Z,15.15
2024-01-15T10:28:11.095Z,16.65
2024-01-15T10:30:38.232Z,14.93
2024-01-15T10:33:06.631Z,14.30
2024-01-15T10:35:35.452Z,14.52
2024-01-15T10:38:03.397Z,13.65
2024-01-15T10:40:30.837Z,12.88
2024-01-15T10:42:58.765Z,14.05
2024-01-15T10:45:26.093Z,13.48
2024-01-15T10:47:53.758Z,13.60
2024-01-15T10:50:21.631Z,21.23
2024-01-15T10:52:48.971Z,18.42
2024-01-15T10:55:19.642Z,14.75
2024-01-15T10:57:50.626Z,16.45
2024-01-15T11:00:19.087Z,14.35
2024-01-15T11:02:46.450Z,14.82
2024-01-15T11:05:13.523Z,15.27
2024-01-15T11:07:42.739Z,14.52
2024-01-15T11:10:42.424Z,15.93
2024-01-15T11:13:32.471Z,15.30
2024-01-15T11:18:42.395Z,15.00
2024-01-15T11:21:18.662Z,15.75
2024-01-15T11:23:52.627Z,15.52
2024-01-15T11:26:45.998Z,16.05
2024-01-15T11:29:30.581Z,13.85
2024-01-15T11:32:08.680Z,12.85
2024-01-15T11:35:04.754Z,20.63
2024-01-15T11:37:52.020Z,23.15
2024-01-15T11:40:20.361Z,17.05
2024-01-15T11:42:48.626Z,14.85
2024-01-15T11:45:20.657Z,14.18
2024-01-15T11:48:19.317Z,15.10
2024-01-15T11:50:50.662Z,13.43
2024-01-15T11:53:33.117Z,13.95
2024-01-15T11:56:03.160Z,14.23
2024-01-15T12:00:57.672Z,15.57
2024-01-15T12:03:25.295Z,12.20
2024-01-15T12:05:55.782Z,14.90
2024-01-15T12:08:26.471Z,13.52
2024-01-15T12:10:53.897Z,16.02
2024-01-15T12:13:21.891Z,14.55
2024-01-15T12:15:49.949Z,14.57
2024-01-15T12:18:19.715Z,14.95
2024-01-15T12:20:50.848Z,14.68
2024-01-15T12:23:18.736Z,13.10
2024-01-15T12:25:47.226Z,13.18
2024-01-15T12:28:15.667Z,13.10
2024-01-15T12:30:42.885Z,12.57
2024-01-15T12:33:10.691Z,13.10
2024-01-15T12:35:38.660Z,13.25
2024-01-15T12:38:07.252Z,13.80
2024-01-15T12:40:36.239Z,12.02
2024-01-15T12:43:04.572Z,11.85
2024-01-15T12:45:33.216Z,20.70
2024-01-15T12:48:01.645Z,18.58
2024-01-15T12:50:28.967Z,14.57
2024-01-15T12:52:56.105Z,16.27
2024-01-15T12:55:23.423Z,13.57
2024-01-15T12:57:53.828Z,12.15
2024-01-15T13:00:21.505Z,13.43
2024-01-15T13:02:48.733Z,12.93
2024-01-15T13:05:17.765Z,13.38
2024-01-15T13:07:45.330Z,12.18
2024-01-15T13:10:13.235Z,14.52
2024-01-15T13:12:42.509Z,14.00
2024-01-15T13:15:14.799Z,15.02
2024-01-15T13:17:43.829Z,14.65
2024-01-15T13:20:12.722Z,15.85
2024-01-15T13:22:41.029Z,16.20
2024-01-15T13:25:09.413Z,12.82
2024-01-15T13:27:38.226Z,14.02
2024-01-15T13:30:08.558Z,13.27
2024-01-15T13:32:36.764Z,13.05
2024-01-15T13:35:06.880Z,12.55
2024-01-15T13:40:01.019Z,11.88
2024-01-15T13:42:28.804Z,12.82
2024-01-15T13:44:57.117Z,12.95
2024-01-15T13:47:25.121Z,13.10
2024-01-15T13:49:52.107Z,12.85
2024-01-15T13:52:19.215Z,12.18
2024-01-15T13:54:50.155Z,11.23
2024-01-15T13:57:19.471Z,13.20
2024-01-15T13:59:47.533Z,12.13
2024-01-15T14:02:18.082Z,10.68
2024-01-15T14:04:49.357Z,11.07
2024-01-15T14:07:16.720Z,7.85
2024-01-15T14:09:44.066Z,8.68
2024-01-15T14:12:11.127Z,10.80
2024-01-15T14:14:38.063Z,22.40
2024-01-15T14:17:05.274Z,9.10
2024-01-15T14:19:32.447Z,7.25
2024-01-15T14:21:59.594Z,6.47
2024-01-15T14:24:26.679Z,7.35
2024-01-15T14:26:53.627Z,7.25
2024-01-15T14:29:23.500Z,7.88
2024-01-15T14:31:50.581Z,7.72
2024-01-15T14:34:19.252Z,9.23
2024-01-15T14:36:47.214Z,9.05
2024-01-15T14:39:14.253Z,9.13
2024-01-15T14:41:41.240Z,9.40
2024-01-15T14:44:08.146Z,10.80
2024-01-15T14:46:35.104Z,8.95
2024-01-15T14:49:02.150Z,9.50
2024-01-15T14:51:29.167Z,10.25
2024-01-15T14:53:56.158Z,12.93
2024-01-15T14:56:23.208Z,11.02
2024-01-15T14:58:50.529Z,11.02
2024-01-15T15:01:17.700Z,13.27
2024-01-15T15:03:45.642Z,11.18
2024-01-15T15:06:14.139Z,11.68
2024-01-15T15:08:41.973Z,11.00
2024-01-15T15:11:10.069Z,12.23
2024-01-15T15:13:44.513Z,12.52
2024-01-15T15:16:14.787Z,13.10
2024-01-15T15:18:45.286Z,13.65
2024-01-15T15:21:12.881Z,12.90
2024-01-15T15:23:43.466Z,13.15
2024-01-15T15:26:10.894Z,13.45
2024-01-15T15:28:38.343Z,12.27
2024-01-15T15:31:09.654Z,13.93
2024-01-15T15:33:37.376Z,13.02
2024-01-15T15:36:06.270Z,13.10
2024-01-15T15:38:34.275Z,14.43
2024-01-15T15:41:02.100Z,14.93
2024-01-15T15:43:30.031Z,15.40
2024-01-15T15:45:59.274Z,15.75
2024-01-15T15:48:26.763Z,15.50
2024-01-15T15:50:55.392Z,18.98
2024-01-15T15:53:23.574Z,19.50
2024-01-15T15:55:50.585Z,18.20
2024-01-15T15:58:18.093Z,17.75
2024-01-15T16:00:47.852Z,17.63
2024-01-15T16:03:16.144Z,17.88
2024-01-15T16:05:51.920Z,18.63
2024-01-15T16:08:21.577Z,19.17
2024-01-15T16:10:53.262Z,23.13
2024-01-15T16:13:22.660Z,20.20
2024-01-15T16:15:50.784Z,19.63
2024-01-15T16:23:20.377Z,19.10
2024-01-15T16:23:34.885Z,20.45
2024-01-15T16:24:12.120Z,17.80
2024-01-15T16:26:41.257Z,20.50
2024-01-15T16:29:09.788Z,18.98
2024-01-15T16:31:38.320Z,21.27
2024-01-15T16:34:06.107Z,17.52
2024-01-15T16:36:34.216Z,18.42
2024-01-15T16:39:02.060Z,17.65
2024-01-15T16:41:29.459Z,19.17
2024-01-15T16:43:57.508Z,20.08
2024-01-15T16:46:24.489Z,16.40
2024-01-15T16:48:51.651Z,21.85
2024-01-15T16:51:18.631Z,18.58
2024-01-15T16:53:45.614Z,16.73
2024-01-15T16:56:12.591Z,16.63
2024-01-15T16:58:39.716Z,17.75
2024-01-15T17:01:09.371Z,19.30
2024-01-15T17:03:36.543Z,18.02
2024-01-15T17:06:03.833Z,18.85
2024-01-15T17:08:31.618Z,17.58
2024-01-15T17:11:00.742Z,17.92
2024-01-15T17:13:29.370Z,17.40
2024-01-15T17:15:56.310Z,17.60
2024-01-15T17:18:23.356Z,17.83
2024-01-15T17:20:50.914Z,16.58
2024-01-15T17:23:19.558Z,17.85
2024-01-15T17:25:46.831Z,18.80
2024-01-15T17:28:14.139Z,18.67
2024-01-15T17:30:41.140Z,20.25
2024-01-15T17:33:08.087Z,19.05
2024-01-15T17:35:35.467Z,16.25
2024-01-15T17:38:02.559Z,9.25
2024-01-15T17:40:30.161Z,10.70
2024-01-15T17:42:57.190Z,9.63
2024-01-15T17:45:25.454Z,7.57
2024-01-15T17:47:52.680Z,7.22
2024-01-15T17:50:20.299Z,6.47
2024-01-15T17:52:47.403Z,6.95
2024-01-15T17:55:14.617Z,7.15
2024-01-15T17:57:41.612Z,6.95
2024-01-15T18:00:12.326Z,6.70
2024-01-15T18:02:39.799Z,7.40
2024-01-15T18:05:07.068Z,6.07
2024-01-15T18:07:34.214Z,7.97
2024-01-15T18:10:01.214Z,20.85
2024-01-15T18:12:28.844Z,15.57
2024-01-15T18:14:55.840Z,12.25
2024-01-15T18:17:24.446Z,12.55
2024-01-15T18:19:51.557Z,9.55
2024-01-15T18:22:18.527Z,6.57
2024-01-15T18:24:46.352Z,6.22
2024-01-15T18:27:13.346Z,7.00
2024-01-15T18:29:40.349Z,7.13
2024-01-15T18:32:07.654Z,7.25
2024-01-15T18:34:34.785Z,6.35
2024-01-15T18:37:01.739Z,7.55
2024-01-15T18:39:28.839Z,7.55
2024-01-15T18:41:55.936Z,6.97
2024-01-15T18:44:23.154Z,7.70
2024-01-15T18:46:50.161Z,7.05
2024-01-15T18:49:19.494Z,7.60
2024-01-15T18:51:49.229Z,10.98
2024-01-15T18:54:17.631Z,10.10
2024-01-15T18:56:45.516Z,6.32
2024-01-15T18:59:12.802Z,6.47
2024-01-15T19:01:40.067Z,5.07
2024-01-15T19:04:08.152Z,5.93
2024-01-15T19:06:35.720Z,6.45
2024-01-15T19:09:02.694Z,6.35
2024-01-15T19:11:29.746Z,5.55
2024-01-15T19:13:56.773Z,5.43
2024-01-15T19:16:23.813Z,5.85
2024-01-15T19:18:54.260Z,7.05
2024-01-15T19:21:21.499Z,7.68
2024-01-15T19:23:48.554Z,11.50
2024-01-15T19:26:22.970Z,11.15
2024-01-15T19:28:50.424Z,8.70
2024-01-15T19:31:20.361Z,6.90
2024-01-15T19:33:47.769Z,7.32
2024-01-15T19:36:25.884Z,6.88
2024-01-15T19:38:53.991Z,5.75
2024-01-15T19:41:22.410Z,5.43
2024-01-15T19:43:49.587Z,6.18
2024-01-15T19:46:17.020Z,6.22
2024-01-15T19:48:44.197Z,7.00
2024-01-15T19:51:13.704Z,9.48
2024-01-15T19:53:42.489Z,9.82
2024-01-15T19:56:09.973Z,11.05
2024-01-15T19:58:38.437Z,9.02
2024-01-15T20:01:05.999Z,10.80
2024-01-15T20:03:32.968Z,7.45
2024-01-15T20:06:00.290Z,9.85
2024-01-15T20:08:27.455Z,19.23
2024-01-15T20:10:54.434Z,12.07
2024-01-15T20:13:21.425Z,13.18
2024-01-15T20:15:48.477Z,13.23
2024-01-15T20:18:16.191Z,21.33
2024-01-15T20:20:43.857Z,16.42
2024-01-15T20:23:11.144Z,16.23
2024-01-15T20:25:38.524Z,15.38
2024-01-15T20:28:07.755Z,10.73
2024-01-15T20:30:35.548Z,10.40
2024-01-15T20:33:03.109Z,18.70
2024-01-15T20:35:30.319Z,12.15
2024-01-15T20:37:58.374Z,13.27
2024-01-15T20:40:25.429Z,11.45
2024-01-15T20:42:52.857Z,15.98
2024-01-15T20:45:20.296Z,14.45
2024-01-15T20:47:47.896Z,11.93
2024-01-15T20:50:16.652Z,10.63
2024-01-15T20:52:43.632Z,13.63
2024-01-15T20:55:11.435Z,13.68
2024-01-15T20:57:39.397Z,17.77
2024-01-15T21:00:09.241Z,16.92
2024-01-15T21:02:37.640Z,16.25
2024-01-15T21:05:05.508Z,13.27
2024-01-15T21:07:32.622Z,14.88
2024-01-15T21:10:00.230Z,14.98
2024-01-15T21:12:27.356Z,13.73
2024-01-15T21:14:56.753Z,15.32
2024-01-15T21:17:24.449Z,15.98
2024-01-15T21:19:57.026Z,14.80
2024-01-15T21:22:24.325Z,12.85
2024-01-15T21:24:51.530Z,14.43
2024-01-15T21:27:18.565Z,14.70
2024-01-15T21:29:45.650Z,14.25
2024-01-15T21:32:12.693Z,11.07
2024-01-15T21:34:39.826Z,10.07
2024-01-15T21:37:07.028Z,11.50
2024-01-15T21:39:34.122Z,9.15
2024-01-15T21:42:01.438Z,9.35
2024-01-15T21:44:29.196Z,8.95
2024-01-15T21:46:56.820Z,10.30
2024-01-15T21:49:24.057Z,9.13
2024-01-15T21:51:51.392Z,8.20
2024-01-15T21:54:18.640Z,7.50
2024-01-15T21:56:46.110Z,7.53
2024-01-15T21:59:13.837Z,7.53
2024-01-15T22:01:41.281Z,7.05
2024-01-15T22:04:09.007Z,7.32
2024-01-15T22:06:37.280Z,6.55
2024-01-15T22:09:04.799Z,7.85
2024-01-15T22:11:31.928Z,7.80
2024-01-15T22:13:59.662Z,7.28
2024-01-15T22:16:26.905Z,7.10
2024-01-15T22:18:55.140Z,7.55
2024-01-15T22:21:22.629Z,6.85
2024-01-15T22:23:50.314Z,8.25
2024-01-15T22:26:17.375Z,8.35
2024-01-15T22:28:44.572Z,7.22
2024-01-15T22:31:11.704Z,6.93
2024-01-15T22:33:39.245Z,6.97
2024-01-15T22:36:06.616Z,7.40
2024-01-15T22:38:33.590Z,6.63
2024-01-15T22:41:00.518Z,6.95
2024-01-15T22:43:28.279Z,7.45
2024-01-15T22:45:55.769Z,6.60
2024-01-15T22:48:22.818Z,6.93
2024-01-15T22:50:50.024Z,7.10
2024-01-15T22:53:16.994Z,7.03
2024-01-15T22:55:43.876Z,7.28
2024-01-15T22:58:10.867Z,7.10
2024-01-15T23:00:37.790Z,6.50
2024-01-15T23:03:05.337Z,7.05
2024-01-15T23:05:32.470Z,7.30
2024-01-15T23:07:59.336Z,7.20
2024-01-15T23:10:26.227Z,7.97
2024-01-15T23:12:53.227Z,8.00
2024-01-15T23:15:22.159Z,8.25
2024-01-15T23:17:49.313Z,8.70
2024-01-15T23:20:16.538Z,8.13
2024-01-15T23:22:43.669Z,7.72
2024-01-15T23:25:11.083Z,7.45
2024-01-15T23:27:38.283Z,7.45
2024-01-15T23:30:05.903Z,7.13
2024-01-15T23:32:33.212Z,7.15
2024-01-15T23:35:00.374Z,7.55
2024-01-15T23:37:27.263Z,7.38
2024-01-15T23:39:54.263Z,6.70
2024-01-15T23:42:21.372Z,6.70
2024-01-15T23:44:50.594Z,6.63
2024-01-15T23:47:18.397Z,6.90
2024-01-15T23:49:45.386Z,7.10
2024-01-15T23:52:12.295Z,7.82
2024-01-15T23:54:39.905Z,6.00
2024-01-15T23:57:06.945Z,6.43
2024-01-15T23:59:35.724Z,6.60
